Airfield :
LOGIN :

Register | Disclaimer

   EN    FR    IT 

 










Legend :    VFR   Marginal VFR   IFR   Intensive IFR   Very Intensive IFR
Visi :
Ceiling :
>= 8 km
>= 3000ft
5 to 8 km
1000 to 3000 ft
1500m to 5 km
500 to 1000 ft
800 to 1500m
200 to 500 ft
< 800m
< 200 ft
Symbols :   Thunderstorms  Fog  Heavy snow  Heavy precipitations  Wind > 20 kt
SIGMETs :     Misc.  Thunderstorms  Icing  Turbulence  Mountain Waves  Volcanic Ashes






- Airport Elevation : 424 ft
- IATA code : QGY


LHPR - Györ Per

CURRENT METAR :
  • 030845Z AUTO 26005KT 160V320 CAVOK 26/12 Q1019 NOSIG

EXPIRED METARs :
  • 030815Z AUTO VRB04KT CAVOK 25/12 Q1020 NOSIG
  • 030745Z AUTO VRB02KT CAVOK 24/13 Q1020 NOSIG
  • 030715Z AUTO VRB02G67KT CAVOK 23/13 Q1020 NOSIG
  • 030645Z AUTO VRB02KT CAVOK 22/13 Q1020 NOSIG
  • 030615Z AUTO VRB03KT CAVOK 20/13 Q1020 NOSIG

TAF TAF LHPR
Valid from the 03 at 09:00 until the 03 at 18:00 UTC


030815Z 0309/0318 VRB04KT CAVOK
BECMG 0309/0312 30009KT



MET'MAP, your aeronautical weather chart ! - Copyright ORBIFLY December 2007 - Disclaimer

ORBIFLY MET'MAP TEAM :

Programming & Development : Alexandra Zaïnal
Original concept : Baudouin d'Aumeries
Technical & hardware support : Manuel Goepfert
Assistance : Marc-Olivier Méhu




SOURCES & CREDITS :

   NOAA